Terminal Aerodrome Forecast
Issued by NWS

Home | Current Version | Previous Version | Text Only | Print | Product List | Glossary On
Versions: 1 2 3 4 5 6 7 8 9 10 11 12 13 14 15 16 17 18 19 20 21 22 23 24 25 26 27 28 29 30 31 32 33 34
000
FTUS44 KOUN 202320
TAFWWR
TAF
KWWR 202320Z 2100/2124 01014KT P6SM BKN080
     FM211700 02012KT P6SM OVC050
     FM212100 03010KT P6SM OVC020 PROB30 2121/2124 4SM -FZRAPL
      OVC010=

USA.gov is the U.S. government's official web portal to all federal, state and local government web resources and services.